sensor_id;sensor_type;location;lat;lon;timestamp;pressure;altitude;pressure_sealevel;temperature;humidity
74637;BME280;63141;54.616;39.754;2023-04-22T00:02:22;99400.94;;;26.35;22.10
74637;BME280;63141;54.616;39.754;2023-04-22T00:05:29;99404.56;;;26.33;22.00
74637;BME280;63141;54.616;39.754;2023-04-22T00:08:31;99406.28;;;26.35;21.88
74637;BME280;63141;54.616;39.754;2023-04-22T00:11:32;99401.88;;;26.33;22.08
74637;BME280;63141;54.616;39.754;2023-04-22T00:14:34;99395.69;;;26.33;22.09
74637;BME280;63141;54.616;39.754;2023-04-22T00:17:38;99398.38;;;26.33;21.98
74637;BME280;63141;54.616;39.754;2023-04-22T00:20:41;99400.19;;;26.32;21.79
74637;BME280;63141;54.616;39.754;2023-04-22T00:23:43;99404.69;;;26.32;21.88
74637;BME280;63141;54.616;39.754;2023-04-22T00:26:47;99395.78;;;26.31;22.17
74637;BME280;63141;54.616;39.754;2023-04-22T00:29:49;99398.47;;;26.31;22.20
74637;BME280;63141;54.616;39.754;2023-04-22T00:32:51;99397.63;;;26.31;22.03
74637;BME280;63141;54.616;39.754;2023-04-22T00:35:53;99397.63;;;26.31;22.08
74637;BME280;63141;54.616;39.754;2023-04-22T00:38:54;99396.78;;;26.30;22.08
74637;BME280;63141;54.616;39.754;2023-04-22T00:41:56;99398.47;;;26.31;21.76
74637;BME280;63141;54.616;39.754;2023-04-22T00:44:58;99396.78;;;26.30;21.94
74637;BME280;63141;54.616;39.754;2023-04-22T00:48:02;99395.03;;;26.29;22.41
74637;BME280;63141;54.616;39.754;2023-04-22T00:51:04;99397.72;;;26.29;22.27
74637;BME280;63141;54.616;39.754;2023-04-22T00:54:05;99392.38;;;26.29;22.26
74637;BME280;63141;54.616;39.754;2023-04-22T00:57:07;99398.69;;;26.28;22.22
74637;BME280;63141;54.616;39.754;2023-04-22T01:00:12;99392.38;;;26.29;22.07
74637;BME280;63141;54.616;39.754;2023-04-22T01:03:14;99393.34;;;26.28;22.20
74637;BME280;63141;54.616;39.754;2023-04-22T01:06:18;99391.53;;;26.29;22.10
74637;BME280;63141;54.616;39.754;2023-04-22T01:09:20;99388.00;;;26.28;22.30
74637;BME280;63141;54.616;39.754;2023-04-22T01:12:21;99388.00;;;26.28;22.05
74637;BME280;63141;54.616;39.754;2023-04-22T01:15:23;99388.00;;;26.28;22.15
74637;BME280;63141;54.616;39.754;2023-04-22T01:18:25;99388.00;;;26.28;22.22
74637;BME280;63141;54.616;39.754;2023-04-22T01:21:26;99397.84;;;26.28;22.20
74637;BME280;63141;54.616;39.754;2023-04-22T01:24:32;99390.78;;;26.27;22.37
74637;BME280;63141;54.616;39.754;2023-04-22T01:27:34;99392.50;;;26.28;22.35
74637;BME280;63141;54.616;39.754;2023-04-22T01:30:41;99383.75;;;26.26;22.25
74637;BME280;63141;54.616;39.754;2023-04-22T01:33:43;99384.59;;;26.26;22.42
74637;BME280;63141;54.616;39.754;2023-04-22T01:36:49;99382.91;;;26.25;22.24
74637;BME280;63141;54.616;39.754;2023-04-22T01:39:53;99383.75;;;26.26;22.79
74637;BME280;63141;54.616;39.754;2023-04-22T01:42:54;99382.91;;;26.25;22.36
74637;BME280;63141;54.616;39.754;2023-04-22T01:45:56;99385.56;;;26.25;22.73
74637;BME280;63141;54.616;39.754;2023-04-22T01:48:58;99381.16;;;26.24;22.75
74637;BME280;63141;54.616;39.754;2023-04-22T01:51:59;99379.47;;;26.23;22.62
74637;BME280;63141;54.616;39.754;2023-04-22T01:55:01;99383.97;;;26.23;22.60
74637;BME280;63141;54.616;39.754;2023-04-22T01:58:03;99391.09;;;26.22;22.73
74637;BME280;63141;54.616;39.754;2023-04-22T02:01:11;99399.09;;;26.22;22.53
74637;BME280;63141;54.616;39.754;2023-04-22T02:04:13;99397.41;;;26.21;22.37
74637;BME280;63141;54.616;39.754;2023-04-22T02:07:17;99399.09;;;26.22;22.66
74637;BME280;63141;54.616;39.754;2023-04-22T02:10:21;99394.00;;;26.19;22.68
74637;BME280;63141;54.616;39.754;2023-04-22T02:13:22;99389.50;;;26.20;22.70
74637;BME280;63141;54.616;39.754;2023-04-22T02:16:23;99390.47;;;26.19;22.51
74637;BME280;63141;54.616;39.754;2023-04-22T02:19:28;99388.66;;;26.19;22.54
74637;BME280;63141;54.616;39.754;2023-04-22T02:22:32;99396.66;;;26.19;22.88
74637;BME280;63141;54.616;39.754;2023-04-22T02:25:33;99391.41;;;26.18;22.67
74637;BME280;63141;54.616;39.754;2023-04-22T02:28:35;99400.41;;;26.17;22.90
74637;BME280;63141;54.616;39.754;2023-04-22T02:31:36;99402.09;;;26.18;22.68
74637;BME280;63141;54.616;39.754;2023-04-22T02:34:37;99406.56;;;26.17;22.40
74637;BME280;63141;54.616;39.754;2023-04-22T02:37:39;99406.56;;;26.17;22.83
74637;BME280;63141;54.616;39.754;2023-04-22T02:40:40;99400.41;;;26.17;22.80
74637;BME280;63141;54.616;39.754;2023-04-22T02:43:41;99404.88;;;26.16;22.81
74637;BME280;63141;54.616;39.754;2023-04-22T02:46:49;99400.50;;;26.15;22.76
74637;BME280;63141;54.616;39.754;2023-04-22T02:49:54;99401.47;;;26.14;22.66
74637;BME280;63141;54.616;39.754;2023-04-22T02:52:58;99410.41;;;26.13;22.60
74637;BME280;63141;54.616;39.754;2023-04-22T02:56:02;99405.28;;;26.10;22.70
74637;BME280;63141;54.616;39.754;2023-04-22T02:59:04;99405.50;;;26.07;22.23
74637;BME280;63141;54.616;39.754;2023-04-22T03:02:05;99397.59;;;26.05;22.25
74637;BME280;63141;54.616;39.754;2023-04-22T03:05:31;99403.03;;;26.04;22.47
74637;BME280;63141;54.616;39.754;2023-04-22T03:08:33;99401.34;;;26.03;22.97
74637;BME280;63141;54.616;39.754;2023-04-22T03:11:37;99403.78;;;26.06;23.05
74637;BME280;63141;54.616;39.754;2023-04-22T03:14:38;99407.22;;;26.08;23.68
74637;BME280;63141;54.616;39.754;2023-04-22T03:17:40;99412.31;;;26.11;23.79
74637;BME280;63141;54.616;39.754;2023-04-22T03:20:44;99408.72;;;26.12;23.95
74637;BME280;63141;54.616;39.754;2023-04-22T03:23:46;99417.66;;;26.11;23.99
74637;BME280;63141;54.616;39.754;2023-04-22T03:26:47;99411.69;;;26.07;23.42
74637;BME280;63141;54.616;39.754;2023-04-22T03:29:49;99422.47;;;26.06;23.70
74637;BME280;63141;54.616;39.754;2023-04-22T03:32:50;99418.28;;;26.02;23.38
74637;BME280;63141;54.616;39.754;2023-04-22T03:35:57;99420.19;;;26.00;23.64
74637;BME280;63141;54.616;39.754;2023-04-22T03:39:02;99420.41;;;25.97;23.39
74637;BME280;63141;54.616;39.754;2023-04-22T03:42:05;99429.41;;;25.96;23.65
74637;BME280;63141;54.616;39.754;2023-04-22T03:45:12;99427.66;;;25.95;23.66
74637;BME280;63141;54.616;39.754;2023-04-22T03:48:18;99431.31;;;25.94;23.65
74637;BME280;63141;54.616;39.754;2023-04-22T03:51:23;99430.47;;;25.93;23.71
74637;BME280;63141;54.616;39.754;2023-04-22T03:54:25;99429.59;;;25.92;23.33
74637;BME280;63141;54.616;39.754;2023-04-22T03:57:27;99429.81;;;25.89;23.42
74637;BME280;63141;54.616;39.754;2023-04-22T04:00:32;99435.03;;;25.91;23.36
74637;BME280;63141;54.616;39.754;2023-04-22T04:03:42;99429.81;;;25.89;23.28
74637;BME280;63141;54.616;39.754;2023-04-22T04:06:49;99434.28;;;25.89;23.22
74637;BME280;63141;54.616;39.754;2023-04-22T04:09:54;99437.03;;;25.87;23.08
74637;BME280;63141;54.616;39.754;2023-04-22T04:12:55;99438.91;;;25.85;23.05
74637;BME280;63141;54.616;39.754;2023-04-22T04:16:13;99437.03;;;25.87;23.27
74637;BME280;63141;54.616;39.754;2023-04-22T04:19:16;99439.50;;;25.90;23.25
74637;BME280;63141;54.616;39.754;2023-04-22T04:22:20;99434.06;;;25.92;23.21
74637;BME280;63141;54.616;39.754;2023-04-22T04:25:30;99439.41;;;25.92;23.15
74637;BME280;63141;54.616;39.754;2023-04-22T04:28:46;99438.34;;;25.95;22.97
74637;BME280;63141;54.616;39.754;2023-04-22T04:31:50;99439.19;;;25.95;23.22
74637;BME280;63141;54.616;39.754;2023-04-22T04:34:59;99435.50;;;25.98;23.50
74637;BME280;63141;54.616;39.754;2023-04-22T04:38:01;99434.50;;;25.99;23.39
74637;BME280;63141;54.616;39.754;2023-04-22T04:41:04;99442.53;;;25.99;23.27
74637;BME280;63141;54.616;39.754;2023-04-22T04:44:08;99448.59;;;26.01;23.12
74637;BME280;63141;54.616;39.754;2023-04-22T04:47:12;99444.13;;;26.01;23.65
74637;BME280;63141;54.616;39.754;2023-04-22T04:50:19;99444.88;;;26.03;23.06
74637;BME280;63141;54.616;39.754;2023-04-22T04:53:23;99444.03;;;26.03;23.47
74637;BME280;63141;54.616;39.754;2023-04-22T04:56:28;99442.31;;;26.02;22.94
74637;BME280;63141;54.616;39.754;2023-04-22T04:59:31;99443.06;;;26.04;23.07
74637;BME280;63141;54.616;39.754;2023-04-22T05:02:33;99444.78;;;26.05;23.11
74637;BME280;63141;54.616;39.754;2023-04-22T05:05:40;99439.44;;;26.05;23.16
74637;BME280;63141;54.616;39.754;2023-04-22T05:08:41;99444.78;;;26.05;23.04
74637;BME280;63141;54.616;39.754;2023-04-22T05:11:44;99447.44;;;26.05;23.30
74637;BME280;63141;54.616;39.754;2023-04-22T05:14:51;99441.91;;;26.08;23.12
74637;BME280;63141;54.616;39.754;2023-04-22T05:17:58;99447.78;;;26.13;23.03
74637;BME280;63141;54.616;39.754;2023-04-22T05:21:03;99447.59;;;26.16;23.06
74637;BME280;63141;54.616;39.754;2023-04-22T05:24:11;99446.72;;;26.16;23.37
74637;BME280;63141;54.616;39.754;2023-04-22T05:27:19;99446.63;;;26.17;23.05
74637;BME280;63141;54.616;39.754;2023-04-22T05:30:23;99444.69;;;26.19;23.24
74637;BME280;63141;54.616;39.754;2023-04-22T05:33:31;99445.44;;;26.21;23.08
74637;BME280;63141;54.616;39.754;2023-04-22T05:36:35;99452.31;;;26.25;23.13
74637;BME280;63141;54.616;39.754;2023-04-22T05:39:45;99439.72;;;26.27;22.88
74637;BME280;63141;54.616;39.754;2023-04-22T05:42:50;99443.97;;;26.30;22.91
74637;BME280;63141;54.616;39.754;2023-04-22T05:46:03;99439.47;;;26.30;22.90
74637;BME280;63141;54.616;39.754;2023-04-22T05:49:07;99436.50;;;26.35;22.80
74637;BME280;63141;54.616;39.754;2023-04-22T05:52:52;99446.09;;;26.38;23.03
74637;BME280;63141;54.616;39.754;2023-04-22T05:56:03;99446.09;;;26.38;23.01
74637;BME280;63141;54.616;39.754;2023-04-22T05:59:08;99452.09;;;26.41;22.87
74637;BME280;63141;54.616;39.754;2023-04-22T06:02:11;99454.66;;;26.43;22.57
74637;BME280;63141;54.616;39.754;2023-04-22T06:05:14;99459.03;;;26.44;23.12
74637;BME280;63141;54.616;39.754;2023-04-22T06:08:29;99460.66;;;26.46;22.78
74637;BME280;63141;54.616;39.754;2023-04-22T06:11:33;99455.94;;;26.50;22.61
74637;BME280;63141;54.616;39.754;2023-04-22T06:14:46;99458.50;;;26.51;22.66
74637;BME280;63141;54.616;39.754;2023-04-22T06:17:50;99454.84;;;26.52;22.87
74637;BME280;63141;54.616;39.754;2023-04-22T06:20:55;99461.00;;;26.54;22.59
74637;BME280;63141;54.616;39.754;2023-04-22T06:23:59;99457.25;;;26.57;22.93
74637;BME280;63141;54.616;39.754;2023-04-22T06:27:04;99457.16;;;26.59;22.75
74637;BME280;63141;54.616;39.754;2023-04-22T06:30:14;99455.13;;;26.62;22.65
74637;BME280;63141;54.616;39.754;2023-04-22T06:33:19;99453.22;;;26.64;22.50
74637;BME280;63141;54.616;39.754;2023-04-22T06:36:29;99453.00;;;26.67;22.61
74637;BME280;63141;54.616;39.754;2023-04-22T06:39:39;99446.66;;;26.68;22.76
74637;BME280;63141;54.616;39.754;2023-04-22T06:43:02;99450.22;;;26.69;22.68
74637;BME280;63141;54.616;39.754;2023-04-22T06:46:32;99447.66;;;26.67;23.23
74637;BME280;63141;54.616;39.754;2023-04-22T06:49:39;99451.91;;;26.70;23.02
74637;BME280;63141;54.616;39.754;2023-04-22T06:52:43;99448.50;;;26.68;23.05
74637;BME280;63141;54.616;39.754;2023-04-22T06:55:54;99452.75;;;26.70;23.13
74637;BME280;63141;54.616;39.754;2023-04-22T06:58:58;99447.41;;;26.70;23.12
74637;BME280;63141;54.616;39.754;2023-04-22T07:02:10;99456.19;;;26.72;23.18
74637;BME280;63141;54.616;39.754;2023-04-22T07:05:14;99447.22;;;26.73;23.18
74637;BME280;63141;54.616;39.754;2023-04-22T07:08:24;99452.56;;;26.73;23.16
74637;BME280;63141;54.616;39.754;2023-04-22T07:11:40;99452.34;;;26.77;23.38
74637;BME280;63141;54.616;39.754;2023-04-22T07:15:07;99452.13;;;26.80;23.24
74637;BME280;63141;54.616;39.754;2023-04-22T07:18:11;99448.28;;;26.84;23.53
74637;BME280;63141;54.616;39.754;2023-04-22T07:21:15;99438.09;;;26.89;23.82
74637;BME280;63141;54.616;39.754;2023-04-22T07:24:19;99450.28;;;26.93;23.89
74637;BME280;63141;54.616;39.754;2023-04-22T07:27:26;99444.63;;;26.98;24.21
74637;BME280;63141;54.616;39.754;2023-04-22T07:30:33;99451.47;;;27.02;24.37
74637;BME280;63141;54.616;39.754;2023-04-22T07:33:38;99447.72;;;27.04;24.39
74637;BME280;63141;54.616;39.754;2023-04-22T07:36:51;99452.81;;;27.07;24.57
74637;BME280;63141;54.616;39.754;2023-04-22T07:40:01;99452.63;;;27.10;24.51
74637;BME280;63141;54.616;39.754;2023-04-22T07:43:33;99442.69;;;27.12;24.61
74637;BME280;63141;54.616;39.754;2023-04-22T07:46:47;99445.03;;;27.17;24.79
74637;BME280;63141;54.616;39.754;2023-04-22T07:50:01;99444.03;;;27.18;24.78
74637;BME280;63141;54.616;39.754;2023-04-22T07:53:08;99454.53;;;27.21;24.78
74637;BME280;63141;54.616;39.754;2023-04-22T07:56:13;99454.44;;;27.23;24.97
74637;BME280;63141;54.616;39.754;2023-04-22T07:59:21;99456.88;;;27.26;24.86
74637;BME280;63141;54.616;39.754;2023-04-22T08:02:31;99452.28;;;27.28;25.01
74637;BME280;63141;54.616;39.754;2023-04-22T08:05:47;99447.69;;;27.30;25.01
74637;BME280;63141;54.616;39.754;2023-04-22T08:09:09;99436.03;;;27.31;25.20
74637;BME280;63141;54.616;39.754;2023-04-22T08:12:22;99434.09;;;27.33;25.14
74637;BME280;63141;54.616;39.754;2023-04-22T08:15:35;99446.50;;;27.34;25.20
74637;BME280;63141;54.616;39.754;2023-04-22T08:18:46;99439.22;;;27.36;25.29
74637;BME280;63141;54.616;39.754;2023-04-22T08:21:52;99435.56;;;27.37;25.30
74637;BME280;63141;54.616;39.754;2023-04-22T08:25:02;99448.94;;;27.37;25.29
74637;BME280;63141;54.616;39.754;2023-04-22T08:28:16;99444.34;;;27.39;25.44
74637;BME280;63141;54.616;39.754;2023-04-22T08:31:40;99448.72;;;27.40;25.33
74637;BME280;63141;54.616;39.754;2023-04-22T08:35:06;99439.72;;;27.41;25.31
74637;BME280;63141;54.616;39.754;2023-04-22T08:38:10;99442.41;;;27.41;25.49
74637;BME280;63141;54.616;39.754;2023-04-22T08:41:17;99450.31;;;27.43;25.48
74637;BME280;63141;54.616;39.754;2023-04-22T08:44:37;99444.88;;;27.44;25.46
74637;BME280;63141;54.616;39.754;2023-04-22T08:47:47;99438.53;;;27.45;25.62
74637;BME280;63141;54.616;39.754;2023-04-22T08:51:01;99445.59;;;27.46;25.56
74637;BME280;63141;54.616;39.754;2023-04-22T08:54:12;99448.16;;;27.48;25.64
74637;BME280;63141;54.616;39.754;2023-04-22T08:57:39;99449.75;;;27.50;25.61
74637;BME280;63141;54.616;39.754;2023-04-22T09:00:49;99446.13;;;27.51;25.64
74637;BME280;63141;54.616;39.754;2023-04-22T09:04:03;99440.78;;;27.51;25.77
74637;BME280;63141;54.616;39.754;2023-04-22T09:07:10;99445.16;;;27.52;25.72
74637;BME280;63141;54.616;39.754;2023-04-22T09:10:34;99447.72;;;27.54;25.72
74637;BME280;63141;54.616;39.754;2023-04-22T09:13:44;99445.03;;;27.54;25.77
74637;BME280;63141;54.616;39.754;2023-04-22T09:16:58;99451.13;;;27.56;25.83
74637;BME280;63141;54.616;39.754;2023-04-22T09:20:00;99436.88;;;27.55;25.81
74637;BME280;63141;54.616;39.754;2023-04-22T09:23:11;99439.47;;;27.57;25.75
74637;BME280;63141;54.616;39.754;2023-04-22T09:26:41;99448.31;;;27.57;25.86
74637;BME280;63141;54.616;39.754;2023-04-22T09:30:03;99444.69;;;27.58;25.86
74637;BME280;63141;54.616;39.754;2023-04-22T09:33:16;99446.41;;;27.60;25.73
74637;BME280;63141;54.616;39.754;2023-04-22T09:36:31;99455.16;;;27.62;25.89
74637;BME280;63141;54.616;39.754;2023-04-22T09:39:41;99449.81;;;27.62;25.88
74637;BME280;63141;54.616;39.754;2023-04-22T09:42:59;99446.19;;;27.63;25.94
74637;BME280;63141;54.616;39.754;2023-04-22T09:46:21;99453.22;;;27.64;25.98
74637;BME280;63141;54.616;39.754;2023-04-22T09:49:26;99447.88;;;27.64;25.98
74637;BME280;63141;54.616;39.754;2023-04-22T09:52:39;99458.59;;;27.64;26.13
74637;BME280;63141;54.616;39.754;2023-04-22T09:55:53;99447.13;;;27.62;25.91
74637;BME280;63141;54.616;39.754;2023-04-22T09:59:09;99455.41;;;27.58;25.37
74637;BME280;63141;54.616;39.754;2023-04-22T10:02:31;99449.41;;;27.55;24.50
74637;BME280;63141;54.616;39.754;2023-04-22T10:05:38;99444.28;;;27.52;24.35
74637;BME280;63141;54.616;39.754;2023-04-22T10:08:54;99441.53;;;27.53;23.89
74637;BME280;63141;54.616;39.754;2023-04-22T10:12:04;99440.78;;;27.51;23.92
74637;BME280;63141;54.616;39.754;2023-04-22T10:15:18;99438.94;;;27.52;23.76
74637;BME280;63141;54.616;39.754;2023-04-22T10:18:22;99436.38;;;27.50;23.44
74637;BME280;63141;54.616;39.754;2023-04-22T10:21:29;99435.75;;;27.47;23.42
74637;BME280;63141;54.616;39.754;2023-04-22T10:24:51;99438.53;;;27.45;23.09
74637;BME280;63141;54.616;39.754;2023-04-22T10:28:07;99446.66;;;27.44;23.11
74637;BME280;63141;54.616;39.754;2023-04-22T10:31:23;99453.09;;;27.41;22.93
74637;BME280;63141;54.616;39.754;2023-04-22T10:38:06;99456.00;;;27.38;22.81
74637;BME280;63141;54.616;39.754;2023-04-22T10:41:29;99448.09;;;27.36;22.28
74637;BME280;63141;54.616;39.754;2023-04-22T10:44:53;99443.81;;;27.34;22.40
74637;BME280;63141;54.616;39.754;2023-04-22T10:48:02;99439.66;;;27.30;22.26
74637;BME280;63141;54.616;39.754;2023-04-22T10:55:21;99445.97;;;27.29;21.76
74637;BME280;63141;54.616;39.754;2023-04-22T10:58:55;99438.16;;;27.26;21.79
74637;BME280;63141;54.616;39.754;2023-04-22T11:02:10;99445.47;;;27.24;21.62
74637;BME280;63141;54.616;39.754;2023-04-22T11:05:28;99452.50;;;27.25;21.83
74637;BME280;63141;54.616;39.754;2023-04-22T11:09:08;99457.84;;;27.25;21.42
74637;BME280;63141;54.616;39.754;2023-04-22T11:15:50;99450.06;;;27.22;21.62
74637;BME280;63141;54.616;39.754;2023-04-22T11:19:08;99452.91;;;27.19;21.61
74637;BME280;63141;54.616;39.754;2023-04-22T11:22:22;99442.44;;;27.15;21.43
74637;BME280;63141;54.616;39.754;2023-04-22T11:25:38;99442.44;;;27.15;21.27
74637;BME280;63141;54.616;39.754;2023-04-22T11:28:46;99442.44;;;27.15;21.23
74637;BME280;63141;54.616;39.754;2023-04-22T11:32:11;99439.78;;;27.15;21.10
74637;BME280;63141;54.616;39.754;2023-04-22T11:35:39;99438.78;;;27.16;21.29
74637;BME280;63141;54.616;39.754;2023-04-22T11:38:57;99440.53;;;27.17;21.42
74637;BME280;63141;54.616;39.754;2023-04-22T11:42:23;99440.53;;;27.17;21.68
74637;BME280;63141;54.616;39.754;2023-04-22T11:45:41;99444.16;;;27.16;21.50
74637;BME280;63141;54.616;39.754;2023-04-22T11:48:49;99438.78;;;27.16;21.38
74637;BME280;63141;54.616;39.754;2023-04-22T11:52:03;99448.66;;;27.16;21.41
74637;BME280;63141;54.616;39.754;2023-04-22T11:55:24;99443.44;;;27.14;21.49
74637;BME280;63141;54.616;39.754;2023-04-22T11:58:48;99440.75;;;27.14;21.61
74637;BME280;63141;54.616;39.754;2023-04-22T12:02:22;99432.75;;;27.14;21.60
74637;BME280;63141;54.616;39.754;2023-04-22T12:05:41;99426.41;;;27.15;21.60
74637;BME280;63141;54.616;39.754;2023-04-22T12:08:49;99437.09;;;27.15;21.60
74637;BME280;63141;54.616;39.754;2023-04-22T12:12:03;99441.59;;;27.15;21.32
74637;BME280;63141;54.616;39.754;2023-04-22T12:15:13;99436.25;;;27.15;21.48
74637;BME280;63141;54.616;39.754;2023-04-22T12:18:36;99436.25;;;27.15;21.32
74637;BME280;63141;54.616;39.754;2023-04-22T12:21:43;99438.78;;;27.16;21.31
74637;BME280;63141;54.616;39.754;2023-04-22T12:24:50;99435.19;;;27.17;21.30
74637;BME280;63141;54.616;39.754;2023-04-22T12:27:57;99435.19;;;27.17;21.50
74637;BME280;63141;54.616;39.754;2023-04-22T12:31:10;99444.16;;;27.16;21.35
74637;BME280;63141;54.616;39.754;2023-04-22T12:34:25;99449.50;;;27.16;21.73
74637;BME280;63141;54.616;39.754;2023-04-22T12:37:38;99435.41;;;27.14;21.92
74637;BME280;63141;54.616;39.754;2023-04-22T12:41:03;99434.53;;;27.14;22.02
74637;BME280;63141;54.616;39.754;2023-04-22T12:44:24;99435.41;;;27.14;21.49
74637;BME280;63141;54.616;39.754;2023-04-22T12:48:05;99423.00;;;27.13;21.61
74637;BME280;63141;54.616;39.754;2023-04-22T12:51:15;99428.44;;;27.12;21.87
74637;BME280;63141;54.616;39.754;2023-04-22T12:54:29;99434.66;;;27.12;21.82
74637;BME280;63141;54.616;39.754;2023-04-22T12:57:30;99432.94;;;27.11;21.24
74637;BME280;63141;54.616;39.754;2023-04-22T13:00:39;99441.69;;;27.13;21.30
74637;BME280;63141;54.616;39.754;2023-04-22T13:03:52;99444.38;;;27.13;21.26
74637;BME280;63141;54.616;39.754;2023-04-22T13:07:08;99446.09;;;27.14;21.36
74637;BME280;63141;54.616;39.754;2023-04-22T13:10:24;99441.81;;;27.12;21.71
74637;BME280;63141;54.616;39.754;2023-04-22T13:13:50;99443.53;;;27.13;21.69
74637;BME280;63141;54.616;39.754;2023-04-22T13:17:16;99437.34;;;27.12;21.50
74637;BME280;63141;54.616;39.754;2023-04-22T13:20:20;99436.25;;;27.15;21.14
74637;BME280;63141;54.616;39.754;2023-04-22T13:23:27;99440.00;;;27.12;21.11
74637;BME280;63141;54.616;39.754;2023-04-22T13:26:32;99441.94;;;27.10;21.50
74637;BME280;63141;54.616;39.754;2023-04-22T13:29:43;99446.31;;;27.11;21.40
74637;BME280;63141;54.616;39.754;2023-04-22T13:32:53;99449.22;;;27.08;21.13
74637;BME280;63141;54.616;39.754;2023-04-22T13:36:12;99455.50;;;27.07;21.75
74637;BME280;63141;54.616;39.754;2023-04-22T13:39:28;99453.69;;;27.08;21.89
74637;BME280;63141;54.616;39.754;2023-04-22T13:42:42;99452.72;;;27.09;21.50
74637;BME280;63141;54.616;39.754;2023-04-22T13:45:55;99460.75;;;27.09;21.43
74637;BME280;63141;54.616;39.754;2023-04-22T13:49:00;99458.91;;;27.09;21.63
74637;BME280;63141;54.616;39.754;2023-04-22T13:52:32;99449.94;;;27.10;21.09
74637;BME280;63141;54.616;39.754;2023-04-22T13:55:37;99468.53;;;27.12;21.12
74637;BME280;63141;54.616;39.754;2023-04-22T13:58:39;99469.41;;;27.12;21.13
74637;BME280;63141;54.616;39.754;2023-04-22T14:01:55;99464.25;;;27.09;21.49
74637;BME280;63141;54.616;39.754;2023-04-22T14:05:09;99461.59;;;27.09;21.18
74637;BME280;63141;54.616;39.754;2023-04-22T14:08:22;99464.25;;;27.09;21.18
74637;BME280;63141;54.616;39.754;2023-04-22T14:11:35;99467.16;;;27.06;21.40
74637;BME280;63141;54.616;39.754;2023-04-22T14:14:39;99464.50;;;27.06;20.84
74637;BME280;63141;54.616;39.754;2023-04-22T14:17:52;99468.16;;;27.05;20.77
74637;BME280;63141;54.616;39.754;2023-04-22T14:21:03;99471.00;;;27.02;20.55
74637;BME280;63141;54.616;39.754;2023-04-22T14:24:31;99475.41;;;27.03;20.88
74637;BME280;63141;54.616;39.754;2023-04-22T14:28:02;99472.00;;;27.01;20.78
74637;BME280;63141;54.616;39.754;2023-04-22T14:31:09;99479.03;;;27.02;20.66
74637;BME280;63141;54.616;39.754;2023-04-22T14:34:20;99468.34;;;27.02;20.61
74637;BME280;63141;54.616;39.754;2023-04-22T14:37:32;99472.84;;;27.02;20.67
74637;BME280;63141;54.616;39.754;2023-04-22T14:40:43;99471.75;;;27.04;20.48
74637;BME280;63141;54.616;39.754;2023-04-22T14:44:20;99472.59;;;27.05;20.55
74637;BME280;63141;54.616;39.754;2023-04-22T14:47:33;99468.34;;;27.02;20.46
74637;BME280;63141;54.616;39.754;2023-04-22T14:50:59;99468.44;;;27.01;20.40
74637;BME280;63141;54.616;39.754;2023-04-22T14:54:28;99477.44;;;27.00;20.15
74637;BME280;63141;54.616;39.754;2023-04-22T14:57:41;99471.44;;;26.96;20.48
74637;BME280;63141;54.616;39.754;2023-04-22T15:00:51;99478.94;;;26.91;20.29
74637;BME280;63141;54.616;39.754;2023-04-22T15:04:13;99486.94;;;26.91;20.30
74637;BME280;63141;54.616;39.754;2023-04-22T15:07:27;99485.03;;;26.93;20.14
74637;BME280;63141;54.616;39.754;2023-04-22T15:11:02;99492.09;;;26.94;19.93
74637;BME280;63141;54.616;39.754;2023-04-22T15:14:18;99485.03;;;26.93;19.89
74637;BME280;63141;54.616;39.754;2023-04-22T15:17:27;99499.38;;;26.92;20.10
74637;BME280;63141;54.616;39.754;2023-04-22T15:21:02;99495.94;;;26.90;19.95
74637;BME280;63141;54.616;39.754;2023-04-22T15:24:14;99506.72;;;26.88;19.87
74637;BME280;63141;54.616;39.754;2023-04-22T15:27:39;99509.31;;;26.90;19.81
74637;BME280;63141;54.616;39.754;2023-04-22T15:31:02;99513.66;;;26.91;19.82
74637;BME280;63141;54.616;39.754;2023-04-22T15:34:12;99516.34;;;26.91;20.07
74637;BME280;63141;54.616;39.754;2023-04-22T15:37:14;99514.66;;;26.90;19.92
74637;BME280;63141;54.616;39.754;2023-04-22T15:40:21;99519.00;;;26.91;20.10
74637;BME280;63141;54.616;39.754;2023-04-22T15:43:47;99520.75;;;26.92;19.64
74637;BME280;63141;54.616;39.754;2023-04-22T15:46:54;99527.16;;;26.89;20.00
74637;BME280;63141;54.616;39.754;2023-04-22T15:50:18;99529.09;;;26.87;19.87
74637;BME280;63141;54.616;39.754;2023-04-22T15:53:37;99532.69;;;26.86;19.80
74637;BME280;63141;54.616;39.754;2023-04-22T15:56:51;99526.50;;;26.86;20.03
74637;BME280;63141;54.616;39.754;2023-04-22T16:00:17;99540.63;;;26.88;20.37
74637;BME280;63141;54.616;39.754;2023-04-22T16:03:38;99546.72;;;26.90;20.73
74637;BME280;63141;54.616;39.754;2023-04-22T16:06:46;99547.47;;;26.92;20.56
74637;BME280;63141;54.616;39.754;2023-04-22T16:10:02;99552.81;;;26.92;20.82
74637;BME280;63141;54.616;39.754;2023-04-22T16:13:07;99545.72;;;26.91;20.56
74637;BME280;63141;54.616;39.754;2023-04-22T16:16:08;99550.22;;;26.90;20.76
74637;BME280;63141;54.616;39.754;2023-04-22T16:19:10;99551.22;;;26.89;20.71
74637;BME280;63141;54.616;39.754;2023-04-22T16:22:28;99559.22;;;26.89;20.44
74637;BME280;63141;54.616;39.754;2023-04-22T16:25:38;99562.84;;;26.88;20.83
74637;BME280;63141;54.616;39.754;2023-04-22T16:28:51;99567.13;;;26.91;20.55
74637;BME280;63141;54.616;39.754;2023-04-22T16:32:07;99577.81;;;26.91;20.50
74637;BME280;63141;54.616;39.754;2023-04-22T16:35:33;99572.69;;;26.88;20.62
74637;BME280;63141;54.616;39.754;2023-04-22T16:38:58;99576.28;;;26.87;20.48
74637;BME280;63141;54.616;39.754;2023-04-22T16:42:05;99570.94;;;26.87;21.03
74637;BME280;63141;54.616;39.754;2023-04-22T16:45:36;99576.28;;;26.87;20.80
74637;BME280;63141;54.616;39.754;2023-04-22T16:48:37;99582.63;;;26.86;20.96